Time;durP1;ratioP1;P1;durP2;ratioP2;P2;SDS_P1;SDS_P2;PMS_P1;PMS_P2;Temp;Humidity;BMP_temperature;BMP_pressure;BME280_temperature;BME280_humidity;BME280_pressure;Samples;Min_cycle;Max_cycle;Signal;HPM_P1;HPM_P2
2021/06/18 00:00:08;;;;;;;21.67;9.35;;;23.30;99.90;;;;;;4988405;28;20037;-63
2021/06/18 00:02:34;;;;;;;10.65;8.75;;;23.20;99.90;;;;;;4985299;28;20030;-62
2021/06/18 00:04:59;;;;;;;10.95;7.80;;;23.10;99.90;;;;;;4990317;28;20053;-63
2021/06/18 00:07:25;;;;;;;12.50;7.60;;;23.10;99.90;;;;;;4987122;28;20446;-64
2021/06/18 00:10:05;;;;;;;14.68;7.47;;;23.20;99.60;;;;;;4987921;28;20462;-62
2021/06/18 00:12:31;;;;;;;11.93;7.43;;;23.30;99.40;;;;;;4990723;28;20183;-63
2021/06/18 00:14:59;;;;;;;14.20;7.80;;;23.30;98.70;;;;;;4987722;28;20523;-62
2021/06/18 00:17:25;;;;;;;10.45;6.88;;;23.40;98.30;;;;;;4988323;28;20034;-62
2021/06/18 00:19:51;;;;;;;11.10;5.97;;;23.50;97.70;;;;;;4986482;28;20094;-63
2021/06/18 00:22:16;;;;;;;9.82;6.38;;;23.60;97.50;;;;;;4989014;28;20893;-63
2021/06/18 00:24:42;;;;;;;10.15;6.65;;;23.70;97.10;;;;;;4993198;28;20034;-62
2021/06/18 00:27:08;;;;;;;9.95;6.70;;;23.80;97.10;;;;;;4993535;28;20026;-62
2021/06/18 00:29:33;;;;;;;13.02;6.70;;;23.80;96.90;;;;;;4988813;28;20027;-62
2021/06/18 00:31:59;;;;;;;11.65;6.20;;;23.70;97.00;;;;;;4985786;28;20072;-63
2021/06/18 00:34:24;;;;;;;10.50;7.13;;;23.70;97.20;;;;;;4992532;28;20110;-62
2021/06/18 00:36:50;;;;;;;11.70;7.07;;;23.70;97.30;;;;;;4995671;28;20049;-62
2021/06/18 00:39:15;;;;;;;13.85;8.23;;;23.70;97.60;;;;;;4988726;28;20031;-63
2021/06/18 00:41:41;;;;;;;19.90;8.52;;;23.70;98.10;;;;;;4987678;28;20088;-62
2021/06/18 00:44:06;;;;;;;10.80;8.02;;;23.50;98.70;;;;;;4984931;28;20034;-63
2021/06/18 00:46:32;;;;;;;16.90;8.23;;;23.30;99.60;;;;;;4990073;28;20043;-62
2021/06/18 00:48:58;;;;;;;12.73;9.75;;;23.20;99.90;;;;;;4995313;28;20026;-63
2021/06/18 00:51:24;;;;;;;12.50;9.82;;;23.00;99.90;;;;;;4992208;28;20112;-63
2021/06/18 00:53:50;;;;;;;13.00;8.73;;;22.90;99.90;;;;;;4993602;28;20046;-63
2021/06/18 00:56:16;;;;;;;13.05;9.48;;;22.80;99.90;;;;;;4994321;28;20037;-63
2021/06/18 00:58:43;;;;;;;13.77;9.90;;;22.70;99.90;;;;;;4989784;28;20027;-63
2021/06/18 01:01:08;;;;;;;17.67;11.10;;;22.60;99.90;;;;;;4991583;28;20387;-62
2021/06/18 01:03:34;;;;;;;16.48;11.32;;;22.60;99.90;;;;;;4993690;28;20034;-62
2021/06/18 01:05:59;;;;;;;13.48;10.52;;;22.60;99.90;;;;;;4984558;28;20035;-61
2021/06/18 01:08:44;;;;;;;13.93;10.65;;;22.60;99.90;;;;;;4992381;28;20029;-62
2021/06/18 01:11:31;;;;;;;13.27;10.55;;;22.60;99.90;;;;;;4985027;28;20030;-63
2021/06/18 01:14:27;;;;;;;17.55;10.73;;;22.50;99.90;;;;;;4991957;28;20033;-62
2021/06/18 01:17:03;;;;;;;15.32;11.65;;;22.50;99.90;;;;;;4991120;28;20444;-61
2021/06/18 01:19:29;;;;;;;17.52;10.93;;;22.40;99.90;;;;;;4989871;28;20050;-63
2021/06/18 01:22:00;;;;;;;16.63;11.13;;;22.40;99.90;;;;;;4987067;28;20065;-63
2021/06/18 01:24:44;;;;;;;16.27;11.48;;;22.30;99.90;;;;;;4991497;28;20464;-63
2021/06/18 01:27:27;;;;;;;;;;;22.20;99.90;;;;;;4991647;28;20038;-62
2021/06/18 01:30:13;;;;;;;15.90;10.60;;;22.20;99.90;;;;;;4993749;28;19925;-63
2021/06/18 01:32:51;;;;;;;16.05;12.25;;;22.10;99.90;;;;;;4992841;28;20026;-63
2021/06/18 01:35:19;;;;;;;14.23;11.30;;;22.20;99.90;;;;;;4989510;28;20080;-63
2021/06/18 01:37:49;;;;;;;14.88;11.50;;;22.20;99.90;;;;;;4996200;28;20120;-62
2021/06/18 01:40:16;;;;;;;15.73;10.40;;;22.20;99.90;;;;;;4991901;28;20117;-62
2021/06/18 01:42:44;;;;;;;15.63;11.45;;;22.20;99.90;;;;;;5000008;28;20431;-63
2021/06/18 01:45:13;;;;;;;15.10;10.43;;;22.20;99.90;;;;;;4990259;28;20495;-62
2021/06/18 01:47:41;;;;;;;17.67;9.68;;;22.30;99.90;;;;;;4995484;28;20040;-62
2021/06/18 01:50:09;;;;;;;17.55;10.82;;;22.30;99.90;;;;;;4999274;28;20607;-63
2021/06/18 01:52:38;;;;;;;12.63;10.25;;;22.30;99.90;;;;;;4997103;28;20030;-63
2021/06/18 01:55:06;;;;;;;13.60;9.57;;;22.20;99.90;;;;;;4993047;28;20050;-63
2021/06/18 01:57:34;;;;;;;15.13;10.18;;;22.20;99.90;;;;;;4995892;28;20038;-63
2021/06/18 02:02:28;;;;;;;16.73;10.02;;;22.10;99.90;;;;;;5044027;28;20569;-63
2021/06/18 02:04:56;;;;;;;13.95;9.80;;;22.00;99.90;;;;;;5032091;28;20788;-63
2021/06/18 02:07:26;;;;;;;17.13;10.52;;;21.90;99.90;;;;;;5052144;28;20025;-62
2021/06/18 02:09:52;;;;;;;15.63;10.63;;;21.90;99.90;;;;;;5050357;28;20017;-61
2021/06/18 02:12:20;;;;;;;12.82;10.15;;;21.90;99.90;;;;;;5050678;28;20075;-61
2021/06/18 02:14:48;;;;;;;17.02;11.95;;;21.90;99.90;;;;;;5050681;28;20072;-62
2021/06/18 02:17:15;;;;;;;15.15;11.32;;;21.90;99.90;;;;;;5050892;28;20078;-62
2021/06/18 02:19:43;;;;;;;15.82;11.70;;;21.90;99.90;;;;;;5049403;28;20056;-62
2021/06/18 02:22:11;;;;;;;16.02;11.88;;;21.90;99.90;;;;;;5056963;28;20023;-62
2021/06/18 02:24:38;;;;;;;17.25;11.30;;;21.90;99.90;;;;;;5042839;28;20025;-62
2021/06/18 02:27:05;;;;;;;18.85;11.68;;;21.90;99.90;;;;;;5049648;28;20082;-62
2021/06/18 02:29:30;;;;;;;14.10;11.65;;;21.80;99.90;;;;;;5049654;28;20078;-62
2021/06/18 02:32:01;;;;;;;11.48;10.23;;;21.80;99.90;;;;;;5046357;28;20010;-62
2021/06/18 02:34:27;;;;;;;16.77;11.55;;;21.80;99.90;;;;;;5048965;28;20024;-62
2021/06/18 02:36:53;;;;;;;14.73;11.27;;;21.70;99.90;;;;;;5050185;28;20033;-62
2021/06/18 02:39:18;;;;;;;18.00;12.55;;;21.70;99.90;;;;;;5050658;28;20047;-62
2021/06/18 02:41:44;;;;;;;17.35;14.13;;;21.70;99.90;;;;;;5049088;28;20112;-61
2021/06/18 02:44:10;;;;;;;16.25;10.35;;;21.70;99.90;;;;;;5051416;28;20498;-62
2021/06/18 02:47:04;;;;;;;16.13;12.43;;;21.70;99.90;;;;;;5054016;28;20494;-62
2021/06/18 02:49:39;;;;;;;;;;;21.60;99.90;;;;;;5050014;28;20180;-62
2021/06/18 02:52:09;;;;;;;17.52;11.55;;;21.50;99.90;;;;;;5049428;28;19912;-62
2021/06/18 02:54:44;;;;;;;15.68;11.10;;;21.50;99.90;;;;;;5047950;28;20020;-62
2021/06/18 02:57:27;;;;;;;15.93;11.43;;;21.50;99.90;;;;;;5050538;28;20033;-62
2021/06/18 03:00:07;;;;;;;18.73;12.18;;;21.50;99.90;;;;;;5048922;28;20029;-61
2021/06/18 03:02:43;;;;;;;19.83;11.52;;;21.50;99.90;;;;;;5051108;28;20457;-63
2021/06/18 03:05:12;;;;;;;16.00;11.13;;;21.50;99.90;;;;;;5057871;28;20387;-62
2021/06/18 03:07:48;;;;;;;13.60;11.82;;;21.40;99.90;;;;;;5050042;28;20514;-61
2021/06/18 03:10:16;;;;;;;15.70;11.73;;;21.30;99.90;;;;;;5049183;28;20830;-62
2021/06/18 03:12:45;;;;;;;14.00;11.93;;;21.30;99.90;;;;;;5048401;28;20445;-63
2021/06/18 03:15:12;;;;;;;17.55;11.80;;;21.20;99.90;;;;;;5050404;28;20017;-61
2021/06/18 03:17:40;;;;;;;14.70;11.63;;;21.20;99.90;;;;;;5056349;28;20028;-62
2021/06/18 03:20:14;;;;;;;14.65;12.40;;;21.20;99.90;;;;;;5053778;28;20054;-62
2021/06/18 03:22:41;;;;;;;19.73;13.13;;;21.10;99.90;;;;;;5050069;28;20486;-61
2021/06/18 03:25:08;;;;;;;17.67;12.27;;;21.10;99.90;;;;;;5047598;28;20040;-62
2021/06/18 03:27:36;;;;;;;17.85;13.60;;;21.10;99.90;;;;;;5050261;28;20065;-62
2021/06/18 03:30:04;;;;;;;20.27;15.07;;;21.10;99.90;;;;;;5057335;28;20024;-62
2021/06/18 03:32:31;;;;;;;18.70;15.70;;;21.10;99.90;;;;;;5030809;28;20028;-62
2021/06/18 03:34:57;;;;;;;20.67;15.35;;;21.20;99.90;;;;;;5049156;28;20021;-62
2021/06/18 03:37:25;;;;;;;19.08;14.98;;;21.20;99.90;;;;;;5049596;28;20036;-62
2021/06/18 03:39:52;;;;;;;20.75;15.15;;;21.20;99.90;;;;;;5053005;28;20112;-62
2021/06/18 03:42:18;;;;;;;21.27;15.45;;;21.30;99.90;;;;;;5048537;28;20031;-62
2021/06/18 03:44:44;;;;;;;19.60;16.17;;;21.40;99.90;;;;;;5032581;28;20033;-62
2021/06/18 03:47:10;;;;;;;16.75;14.98;;;21.40;99.90;;;;;;5032550;28;20059;-64
2021/06/18 03:49:36;;;;;;;22.00;16.70;;;21.40;99.90;;;;;;5047862;28;20048;-61
2021/06/18 03:52:02;;;;;;;16.92;15.23;;;21.50;99.90;;;;;;5053747;28;20032;-62
2021/06/18 03:54:32;;;;;;;22.77;15.70;;;21.50;99.90;;;;;;5039041;28;20108;-62
2021/06/18 03:56:59;;;;;;;18.08;14.52;;;21.60;99.90;;;;;;5048185;28;20100;-62
2021/06/18 03:59:25;;;;;;;19.00;15.68;;;21.70;99.90;;;;;;5030467;28;20021;-62
2021/06/18 04:01:53;;;;;;;18.67;15.80;;;21.70;99.90;;;;;;5049077;28;20793;-62
2021/06/18 04:04:20;;;;;;;17.38;15.20;;;21.70;99.90;;;;;;5047825;28;20025;-61
2021/06/18 04:06:46;;;;;;;16.35;14.65;;;21.80;99.90;;;;;;5051341;28;20049;-61
2021/06/18 04:09:12;;;;;;;16.33;14.20;;;21.90;99.90;;;;;;5049099;28;20108;-61
2021/06/18 04:11:39;;;;;;;25.45;15.25;;;22.00;99.90;;;;;;5048997;28;20529;-62
2021/06/18 04:14:07;;;;;;;19.95;15.30;;;22.10;99.90;;;;;;5048369;28;20450;-62
2021/06/18 04:16:33;;;;;;;17.52;14.57;;;22.20;99.90;;;;;;5049207;28;20032;-62
2021/06/18 04:18:59;;;;;;;19.40;15.10;;;22.30;99.90;;;;;;5048137;28;20027;-62
2021/06/18 04:21:26;;;;;;;21.13;14.30;;;22.40;99.90;;;;;;5036275;28;20062;-62
2021/06/18 04:23:52;;;;;;;21.05;15.45;;;22.50;99.90;;;;;;5049126;28;20033;-62
2021/06/18 04:26:23;;;;;;;24.52;16.10;;;22.60;99.90;;;;;;5049878;28;20163;-62
2021/06/18 04:28:49;;;;;;;24.63;14.35;;;22.70;99.90;;;;;;5058030;28;20390;-62
2021/06/18 04:31:15;;;;;;;18.52;14.85;;;22.80;99.90;;;;;;5062586;28;20017;-64
2021/06/18 04:33:40;;;;;;;22.52;15.43;;;23.20;99.90;;;;;;5052164;28;20053;-61
2021/06/18 04:36:06;;;;;;;18.35;12.88;;;23.80;99.90;;;;;;5049496;28;20032;-62
2021/06/18 04:38:32;;;;;;;14.40;11.70;;;24.60;99.90;;;;;;5047146;28;20116;-64
2021/06/18 04:40:57;;;;;;;17.42;13.00;;;25.80;99.90;;;;;;5049266;28;20028;-62
2021/06/18 04:43:23;;;;;;;13.43;12.02;;;26.80;99.90;;;;;;5048062;28;20104;-62
2021/06/18 04:45:49;;;;;;;17.85;11.98;;;27.50;99.20;;;;;;5054757;28;20028;-61
2021/06/18 04:48:15;;;;;;;17.98;9.95;;;28.20;97.00;;;;;;5049299;28;20029;-63
2021/06/18 04:50:40;;;;;;;13.40;9.98;;;29.20;95.20;;;;;;5048268;28;20646;-62
2021/06/18 04:53:10;;;;;;;14.65;10.05;;;29.60;94.00;;;;;;5047082;28;20022;-63
2021/06/18 04:55:36;;;;;;;13.18;9.85;;;30.40;93.20;;;;;;5048745;28;20948;-63
2021/06/18 04:58:02;;;;;;;12.65;10.05;;;30.20;91.80;;;;;;5047871;28;20032;-63
2021/06/18 05:00:28;;;;;;;13.15;9.90;;;30.60;91.40;;;;;;5046616;28;20032;-63
2021/06/18 05:02:54;;;;;;;11.07;9.20;;;31.80;89.20;;;;;;5050289;28;20382;-63
2021/06/18 05:05:19;;;;;;;10.63;9.50;;;32.10;87.20;;;;;;5048279;28;20024;-63
2021/06/18 05:07:45;;;;;;;12.30;9.60;;;32.00;86.80;;;;;;5030618;28;20124;-63
2021/06/18 05:10:11;;;;;;;11.93;10.05;;;32.90;83.20;;;;;;5050661;28;20029;-63
2021/06/18 05:12:37;;;;;;;13.35;9.27;;;32.70;81.60;;;;;;5053325;28;20028;-62
2021/06/18 05:15:04;;;;;;;15.07;9.07;;;33.00;80.10;;;;;;5051328;28;20406;-63
2021/06/18 05:17:30;;;;;;;13.50;8.77;;;33.70;79.30;;;;;;5052216;28;20032;-63
2021/06/18 05:19:55;;;;;;;10.23;8.77;;;34.40;76.30;;;;;;5057202;28;20051;-63
2021/06/18 05:22:21;;;;;;;13.60;9.25;;;34.70;74.40;;;;;;5049500;28;20044;-63
2021/06/18 05:24:47;;;;;;;10.52;9.00;;;34.50;73.50;;;;;;5051578;28;20155;-63
2021/06/18 05:27:12;;;;;;;11.05;8.68;;;34.30;73.30;;;;;;5051326;28;20402;-63
2021/06/18 05:29:38;;;;;;;14.57;8.50;;;34.10;72.20;;;;;;5051515;28;20111;-64
2021/06/18 05:32:04;;;;;;;14.50;8.38;;;34.60;72.80;;;;;;5052134;28;20804;-63
2021/06/18 05:34:29;;;;;;;11.43;8.20;;;34.90;72.00;;;;;;5054240;28;20376;-63
2021/06/18 05:36:55;;;;;;;11.98;7.30;;;35.60;70.00;;;;;;5050656;28;20047;-64
2021/06/18 05:39:21;;;;;;;14.93;8.68;;;36.10;68.30;;;;;;5051682;28;20554;-61
2021/06/18 05:41:46;;;;;;;11.55;8.15;;;36.30;67.10;;;;;;5050091;28;20032;-63
2021/06/18 05:44:12;;;;;;;14.35;7.60;;;36.30;66.80;;;;;;5051484;28;20040;-64
2021/06/18 05:46:37;;;;;;;8.98;7.63;;;36.10;66.40;;;;;;5050640;28;20029;-63
2021/06/18 05:49:03;;;;;;;20.20;8.27;;;35.80;67.50;;;;;;5051082;28;20040;-63
2021/06/18 05:51:29;;;;;;;13.93;8.23;;;35.80;67.90;;;;;;5051577;28;20025;-64
2021/06/18 05:53:55;;;;;;;13.85;8.82;;;36.50;65.70;;;;;;5050116;28;20025;-65
2021/06/18 05:56:21;;;;;;;12.25;7.97;;;36.30;64.80;;;;;;5052118;28;20600;-65
2021/06/18 05:58:47;;;;;;;11.13;8.43;;;36.90;64.50;;;;;;5055728;28;20059;-65
2021/06/18 06:01:13;;;;;;;10.30;7.90;;;36.60;64.60;;;;;;5050047;28;20080;-64
2021/06/18 06:03:40;;;;;;;10.60;7.82;;;37.10;63.50;;;;;;5051645;28;20033;-65
2021/06/18 06:06:09;;;;;;;16.10;8.63;;;37.20;63.50;;;;;;5024543;28;20080;-65
2021/06/18 06:08:36;;;;;;;13.32;7.82;;;36.70;62.70;;;;;;5048907;28;20020;-65
2021/06/18 06:11:02;;;;;;;11.45;9.07;;;37.80;61.60;;;;;;5048979;28;20025;-64
2021/06/18 06:13:28;;;;;;;13.73;7.25;;;37.80;60.60;;;;;;5051372;28;20060;-64
2021/06/18 06:15:54;;;;;;;10.85;7.13;;;37.10;61.50;;;;;;5051002;28;20052;-64
2021/06/18 06:18:20;;;;;;;12.93;7.93;;;38.40;60.30;;;;;;5058434;28;20025;-65
2021/06/18 06:20:47;;;;;;;13.65;7.20;;;38.20;59.20;;;;;;5056344;28;20036;-65
2021/06/18 06:23:13;;;;;;;10.88;7.63;;;38.60;60.00;;;;;;5050864;28;20033;-64
2021/06/18 06:25:39;;;;;;;12.52;7.00;;;37.10;60.20;;;;;;5051556;28;20049;-64
2021/06/18 06:28:05;;;;;;;9.50;7.53;;;37.00;63.30;;;;;;5053796;28;20504;-64
2021/06/18 06:30:31;;;;;;;10.95;7.38;;;37.50;60.60;;;;;;5049635;28;20029;-65
2021/06/18 06:32:57;;;;;;;11.75;6.90;;;38.00;59.70;;;;;;5050709;28;20571;-66
2021/06/18 06:35:24;;;;;;;12.82;8.23;;;37.60;59.90;;;;;;5032734;28;20556;-64
2021/06/18 06:37:51;;;;;;;12.48;7.97;;;38.50;58.10;;;;;;5054345;28;20033;-65
2021/06/18 06:40:17;;;;;;;13.38;7.53;;;38.80;58.50;;;;;;5031600;28;20060;-65
2021/06/18 06:42:42;;;;;;;11.23;6.55;;;39.20;57.20;;;;;;5049660;28;20028;-64
2021/06/18 06:45:09;;;;;;;9.90;7.38;;;38.40;58.20;;;;;;5051371;28;20017;-65
2021/06/18 06:47:35;;;;;;;10.70;7.25;;;37.20;57.80;;;;;;5050158;28;20106;-65
2021/06/18 06:50:00;;;;;;;19.58;7.43;;;36.60;59.00;;;;;;5049032;28;20017;-63
2021/06/18 06:52:26;;;;;;;9.75;6.93;;;36.60;59.80;;;;;;5049472;28;20032;-65
2021/06/18 06:54:51;;;;;;;10.13;7.18;;;37.90;58.70;;;;;;5050200;28;20728;-65
2021/06/18 06:57:19;;;;;;;14.48;6.55;;;38.10;59.00;;;;;;5049843;28;20029;-65
2021/06/18 06:59:45;;;;;;;12.63;7.20;;;38.10;58.90;;;;;;5043675;28;20048;-63
2021/06/18 07:02:10;;;;;;;7.88;6.03;;;38.90;57.20;;;;;;5023980;28;20049;-65
2021/06/18 07:04:36;;;;;;;12.40;6.68;;;38.70;57.10;;;;;;5050986;28;20560;-65
2021/06/18 07:07:01;;;;;;;11.85;5.63;;;40.10;55.50;;;;;;5045035;28;20029;-64
2021/06/18 07:09:27;;;;;;;12.57;5.72;;;40.10;55.10;;;;;;5045823;28;20028;-65
2021/06/18 07:11:53;;;;;;;12.38;6.00;;;39.90;55.50;;;;;;5049253;28;20033;-65
2021/06/18 07:14:18;;;;;;;13.13;6.85;;;39.60;56.60;;;;;;5047170;28;20087;-65
2021/06/18 07:16:44;;;;;;;11.30;6.25;;;40.10;54.80;;;;;;5051816;28;20029;-65
2021/06/18 07:19:10;;;;;;;11.38;4.95;;;40.20;54.70;;;;;;5048810;28;20021;-64
2021/06/18 07:21:35;;;;;;;12.02;5.47;;;41.70;52.60;;;;;;5027518;28;20064;-65
2021/06/18 07:24:01;;;;;;;8.02;5.78;;;41.80;51.70;;;;;;5046063;28;20029;-63
2021/06/18 07:26:27;;;;;;;8.65;5.70;;;40.40;52.50;;;;;;5045339;28;20033;-65
2021/06/18 07:28:53;;;;;;;11.57;6.78;;;40.10;53.10;;;;;;5042434;28;20841;-64
2021/06/18 07:31:20;;;;;;;11.32;6.03;;;40.30;53.40;;;;;;5043347;28;20025;-65
2021/06/18 07:33:45;;;;;;;11.88;5.50;;;40.70;53.00;;;;;;5037157;28;20440;-64
2021/06/18 07:36:11;;;;;;;10.30;5.97;;;40.30;51.90;;;;;;5040545;28;20029;-64
2021/06/18 07:38:37;;;;;;;8.65;5.47;;;40.80;52.80;;;;;;5045772;28;20032;-64
2021/06/18 07:41:03;;;;;;;11.30;6.22;;;41.10;52.20;;;;;;5045868;28;20021;-64
2021/06/18 07:43:29;;;;;;;10.88;5.30;;;41.20;50.80;;;;;;5028147;28;20441;-65
2021/06/18 07:45:55;;;;;;;10.52;5.32;;;41.50;51.20;;;;;;5048773;28;20020;-64
2021/06/18 07:48:21;;;;;;;11.32;5.05;;;41.10;51.60;;;;;;5041382;28;20029;-64
2021/06/18 07:50:47;;;;;;;6.85;4.85;;;40.40;51.20;;;;;;5050096;28;20703;-65
2021/06/18 07:53:14;;;;;;;9.23;4.75;;;40.30;51.10;;;;;;5029629;28;20786;-64
2021/06/18 07:55:40;;;;;;;7.90;4.93;;;39.70;50.80;;;;;;5027340;28;20052;-65
2021/06/18 07:58:05;;;;;;;12.75;5.60;;;39.00;53.50;;;;;;5046456;28;20491;-64
2021/06/18 08:00:31;;;;;;;10.88;5.15;;;38.40;54.70;;;;;;5003545;28;20056;-62
2021/06/18 08:02:58;;;;;;;8.90;4.63;;;37.40;55.10;;;;;;5043065;28;20112;-65
2021/06/18 08:05:24;;;;;;;11.68;5.22;;;36.80;56.30;;;;;;5048325;28;20100;-64
2021/06/18 08:07:49;;;;;;;11.63;5.13;;;36.40;57.60;;;;;;5042491;28;20127;-63
2021/06/18 08:10:16;;;;;;;9.50;6.10;;;35.60;58.70;;;;;;5027003;28;20025;-63
2021/06/18 08:12:45;;;;;;;10.45;5.30;;;35.00;59.30;;;;;;5047380;28;20020;-63
2021/06/18 08:15:11;;;;;;;9.70;5.30;;;34.90;60.80;;;;;;5042681;28;20025;-64
2021/06/18 08:17:37;;;;;;;13.15;6.70;;;34.50;62.00;;;;;;5044260;28;20031;-62
2021/06/18 08:20:04;;;;;;;11.20;6.57;;;34.30;62.70;;;;;;5044466;28;20108;-65
2021/06/18 08:22:30;;;;;;;11.18;5.75;;;34.00;62.90;;;;;;5045045;28;20032;-63
2021/06/18 08:24:55;;;;;;;10.32;5.00;;;33.80;64.70;;;;;;5050369;28;20367;-64
2021/06/18 08:27:21;;;;;;;6.30;4.65;;;34.20;62.90;;;;;;5056335;28;20106;-63
2021/06/18 08:29:47;;;;;;;9.00;5.03;;;34.70;61.00;;;;;;5059199;28;20021;-65
2021/06/18 08:32:12;;;;;;;15.57;4.93;;;35.40;58.40;;;;;;5031423;28;20552;-64
2021/06/18 08:34:39;;;;;;;5.68;3.85;;;36.10;60.00;;;;;;5042064;28;20032;-64
2021/06/18 08:37:06;;;;;;;8.55;5.07;;;36.90;54.70;;;;;;5045888;28;20051;-65
2021/06/18 08:39:31;;;;;;;7.40;4.50;;;36.20;55.00;;;;;;5037453;28;20064;-64
2021/06/18 08:41:57;;;;;;;12.02;4.30;;;35.80;55.10;;;;;;5045780;28;20398;-64
2021/06/18 08:44:23;;;;;;;9.77;4.40;;;35.30;57.00;;;;;;5028010;28;20473;-63
2021/06/18 08:46:49;;;;;;;8.43;3.67;;;35.00;55.90;;;;;;5046368;28;20025;-63
2021/06/18 08:49:14;;;;;;;15.60;4.28;;;34.50;56.20;;;;;;5048602;28;21338;-63
2021/06/18 08:51:40;;;;;;;17.30;4.07;;;33.70;58.10;;;;;;5044635;28;20021;-64
2021/06/18 08:54:06;;;;;;;11.82;4.85;;;33.00;58.90;;;;;;5047060;28;20486;-63
2021/06/18 08:56:32;;;;;;;7.93;3.78;;;32.70;62.70;;;;;;5043107;28;20120;-63
2021/06/18 08:58:58;;;;;;;14.65;4.57;;;32.40;64.20;;;;;;5045129;28;20496;-64
2021/06/18 09:01:23;;;;;;;10.05;4.10;;;32.00;63.60;;;;;;5035694;28;20036;-64
2021/06/18 09:03:50;;;;;;;8.93;4.38;;;31.60;63.90;;;;;;5052805;28;20082;-63
2021/06/18 09:06:34;;;;;;;11.88;4.15;;;31.70;67.90;;;;;;5060598;28;20486;-62
2021/06/18 09:09:17;;;;;;;9.88;4.40;;;31.60;66.70;;;;;;5050075;28;20518;-63
2021/06/18 09:11:51;;;;;;;8.35;4.10;;;31.60;63.70;;;;;;5052994;28;20032;-63
2021/06/18 09:14:23;;;;;;;13.25;5.40;;;31.50;65.10;;;;;;5031914;28;20107;-63
2021/06/18 09:17:19;;;;;;;7.35;4.55;;;31.50;65.60;;;;;;5050751;28;20033;-63
2021/06/18 09:19:56;;;;;;;8.57;5.15;;;31.70;64.70;;;;;;5049845;28;20037;-64
2021/06/18 09:22:36;;;;;;;10.13;5.07;;;31.50;63.10;;;;;;5051954;28;20525;-62
2021/06/18 09:25:11;;;;;;;14.27;4.78;;;31.70;62.20;;;;;;5044726;28;20029;-63
2021/06/18 09:27:40;;;;;;;13.40;4.32;;;31.40;63.00;;;;;;5051286;28;20035;-63
2021/06/18 09:30:23;;;;;;;12.98;4.38;;;31.10;62.20;;;;;;5048920;28;20020;-63
2021/06/18 09:33:21;;;;;;;10.95;4.22;;;30.90;67.70;;;;;;5047442;28;20029;-63
2021/06/18 09:36:03;;;;;;;11.02;4.85;;;30.90;67.40;;;;;;5033481;28;20036;-63
2021/06/18 09:38:43;;;;;;;9.23;4.88;;;30.90;66.70;;;;;;5047580;28;20021;-63
2021/06/18 09:41:40;;;;;;;7.65;4.45;;;30.90;68.70;;;;;;5047783;28;20028;-64
2021/06/18 09:44:12;;;;;;;15.55;5.03;;;31.00;69.30;;;;;;5041183;28;20082;-63
2021/06/18 09:47:06;;;;;;;14.20;4.40;;;31.50;71.80;;;;;;5052200;28;20032;-63
2021/06/18 09:49:35;;;;;;;13.30;6.30;;;32.00;70.50;;;;;;5041621;28;20033;-63
2021/06/18 09:52:04;;;;;;;15.27;5.68;;;32.20;71.20;;;;;;5034242;28;20036;-64
2021/06/18 09:54:32;;;;;;;8.77;5.28;;;32.10;71.70;;;;;;5042225;28;20017;-64
2021/06/18 09:57:09;;;;;;;13.38;5.88;;;32.20;70.80;;;;;;5046485;28;20029;-64
2021/06/18 09:59:47;;;;;;;9.52;5.45;;;32.10;70.80;;;;;;5047432;28;20032;-64
2021/06/18 10:02:12;;;;;;;14.07;6.75;;;32.00;70.50;;;;;;5010820;28;20121;-63
2021/06/18 10:04:38;;;;;;;12.73;6.05;;;32.00;71.70;;;;;;5031475;28;20064;-65
2021/06/18 10:07:04;;;;;;;10.23;5.38;;;32.30;69.10;;;;;;5031373;28;20060;-64
2021/06/18 10:09:30;;;;;;;15.82;5.50;;;32.30;68.40;;;;;;5020972;28;20479;-63
2021/06/18 10:11:56;;;;;;;8.48;5.30;;;32.50;69.00;;;;;;5028610;28;20466;-64
2021/06/18 10:14:22;;;;;;;7.85;4.97;;;32.80;68.70;;;;;;5023403;28;20045;-64
2021/06/18 10:16:47;;;;;;;9.88;5.45;;;33.20;69.10;;;;;;5029214;28;20025;-64
2021/06/18 10:19:14;;;;;;;13.82;5.90;;;33.30;67.70;;;;;;5025262;28;20037;-64
2021/06/18 10:22:11;;;;;;;8.77;5.72;;;33.60;67.00;;;;;;5027489;28;20036;-64
2021/06/18 10:24:50;;;;;;;10.90;5.38;;;34.30;65.30;;;;;;5025251;28;20044;-62
2021/06/18 10:27:18;;;;;;;11.38;5.82;;;34.90;63.20;;;;;;5028967;28;20113;-64
2021/06/18 10:29:44;;;;;;;11.93;4.82;;;34.90;62.30;;;;;;5029438;28;20120;-65
2021/06/18 10:32:28;;;;;;;12.15;5.00;;;35.00;62.50;;;;;;5025711;28;20112;-64
2021/06/18 10:35:00;;;;;;;9.65;5.72;;;35.10;62.30;;;;;;5020225;28;20025;-65
2021/06/18 10:37:29;;;;;;;12.52;4.97;;;35.50;60.60;;;;;;5030856;28;20030;-64
2021/06/18 10:39:57;;;;;;;11.00;4.95;;;35.60;59.50;;;;;;5029985;28;20045;-63
2021/06/18 10:42:23;;;;;;;10.23;5.03;;;35.20;57.00;;;;;;5026192;28;20526;-64
2021/06/18 10:44:53;;;;;;;8.32;4.07;;;35.40;57.20;;;;;;5029218;28;20052;-64
2021/06/18 10:47:22;;;;;;;16.33;3.92;;;35.50;55.90;;;;;;5029178;28;20375;-65
2021/06/18 10:49:47;;;;;;;12.57;4.50;;;35.40;56.50;;;;;;5024050;28;20028;-64
2021/06/18 10:52:18;;;;;;;6.30;4.50;;;35.10;58.30;;;;;;5031948;28;20025;-64
2021/06/18 10:54:52;;;;;;;12.23;3.67;;;35.20;58.80;;;;;;5021521;28;20022;-64
2021/06/18 10:57:21;;;;;;;8.52;3.97;;;35.20;56.40;;;;;;5027835;28;20029;-64
2021/06/18 10:59:47;;;;;;;9.63;3.10;;;35.20;56.40;;;;;;5028504;28;20517;-64
2021/06/18 11:02:25;;;;;;;15.63;4.40;;;34.80;56.10;;;;;;5023926;28;20053;-64
2021/06/18 11:05:08;;;;;;;10.20;3.50;;;34.70;57.80;;;;;;5049893;28;20356;-64
2021/06/18 11:07:37;;;;;;;10.10;3.38;;;34.70;59.70;;;;;;5048634;28;20090;-64
2021/06/18 11:10:27;;;;;;;8.55;2.75;;;34.60;58.40;;;;;;5046186;28;20037;-64
2021/06/18 11:13:00;;;;;;;11.48;3.10;;;34.90;56.90;;;;;;5050122;28;20114;-65
2021/06/18 11:15:25;;;;;;;;;;;35.40;52.10;;;;;;5050559;28;20032;-64
2021/06/18 11:18:00;;;;;;;12.05;3.40;;;35.50;52.60;;;;;;5049374;28;20054;-63
2021/06/18 11:20:34;;;;;;;13.05;2.97;;;35.60;50.70;;;;;;5049125;28;20040;-64
2021/06/18 11:23:21;;;;;;;16.00;3.83;;;35.50;51.60;;;;;;5020344;28;20063;-63
2021/06/18 11:25:47;;;;;;;10.55;2.97;;;34.90;52.50;;;;;;5018356;28;20059;-65
2021/06/18 11:30:59;;;;;;;9.68;3.47;;;35.20;54.10;;;;;;5047836;28;20081;-64
2021/06/18 11:33:39;;;;;;;13.30;3.03;;;35.00;54.00;;;;;;5034131;28;20079;-64
2021/06/18 11:36:09;;;;;;;9.88;2.95;;;35.00;52.80;;;;;;5049105;28;20490;-63
2021/06/18 11:38:35;;;;;;;7.32;3.30;;;34.70;50.80;;;;;;5044113;28;20060;-63
2021/06/18 11:41:09;;;;;;;5.78;2.72;;;34.80;51.80;;;;;;5048304;28;20537;-64
2021/06/18 11:43:35;;;;;;;13.55;4.20;;;34.90;52.30;;;;;;5049334;28;20064;-64
2021/06/18 11:46:00;;;;;;;12.63;3.17;;;34.60;52.90;;;;;;5045110;28;20033;-64
2021/06/18 11:48:26;;;;;;;9.60;2.75;;;35.00;52.30;;;;;;5049331;28;20402;-64
2021/06/18 11:50:53;;;;;;;8.82;3.40;;;35.30;51.00;;;;;;5049266;28;20397;-64
2021/06/18 11:53:20;;;;;;;6.65;3.78;;;35.50;50.40;;;;;;5049296;28;20502;-64
2021/06/18 11:55:59;;;;;;;10.95;3.10;;;35.50;50.60;;;;;;5042578;28;20025;-64
2021/06/18 11:58:44;;;;;;;9.50;3.35;;;35.20;51.30;;;;;;5044856;28;20112;-64
2021/06/18 12:01:25;;;;;;;15.88;3.30;;;35.10;51.70;;;;;;5024162;28;20041;-63
2021/06/18 12:03:53;;;;;;;8.10;3.00;;;34.90;51.20;;;;;;5049127;28;20029;-64
2021/06/18 12:06:20;;;;;;;10.18;4.13;;;34.60;53.20;;;;;;5049708;28;20083;-63
2021/06/18 12:09:10;;;;;;;19.30;3.60;;;34.40;53.70;;;;;;5048812;28;20021;-64
2021/06/18 12:11:42;;;;;;;8.55;3.25;;;34.40;54.20;;;;;;5045720;28;20040;-63
2021/06/18 12:14:09;;;;;;;17.35;4.10;;;34.40;54.80;;;;;;5042224;28;20013;-64
2021/06/18 12:16:37;;;;;;;11.00;3.67;;;34.40;54.80;;;;;;5049193;28;20028;-63
2021/06/18 12:19:23;;;;;;;7.10;3.33;;;34.60;54.70;;;;;;5045952;28;20482;-64
2021/06/18 12:21:59;;;;;;;10.10;4.13;;;34.50;54.40;;;;;;5047503;28;20094;-63
2021/06/18 12:24:34;;;;;;;10.27;3.58;;;34.30;55.00;;;;;;5041556;28;20025;-63
2021/06/18 12:27:00;;;;;;;7.88;3.45;;;34.20;54.80;;;;;;5048317;28;20021;-64
2021/06/18 12:29:27;;;;;;;9.32;3.88;;;33.90;53.10;;;;;;5041948;28;20025;-63
2021/06/18 12:31:54;;;;;;;12.07;4.03;;;33.80;54.30;;;;;;5046338;28;20036;-63
2021/06/18 12:34:21;;;;;;;12.65;3.90;;;33.80;56.70;;;;;;5040786;28;20028;-64
2021/06/18 12:36:47;;;;;;;9.35;3.72;;;33.80;56.00;;;;;;5042846;28;20360;-64
2021/06/18 12:39:14;;;;;;;10.13;3.50;;;33.70;57.30;;;;;;5043762;28;20439;-64
2021/06/18 12:41:41;;;;;;;11.95;4.38;;;33.80;57.10;;;;;;5044392;28;20060;-64
2021/06/18 12:44:09;;;;;;;12.52;4.13;;;33.70;56.50;;;;;;5046462;28;20028;-64
2021/06/18 12:46:35;;;;;;;16.05;4.15;;;33.60;56.10;;;;;;5046484;28;20487;-64
2021/06/18 12:49:10;;;;;;;16.15;4.15;;;33.50;56.90;;;;;;5047414;28;20111;-62